• Join FlightAware (Why Join?)
  • Login
  • US Flag GB Flag 
12:23 EDT


 

Airport Tracker/Info


-or-


 

Live Flight TrackerFlight Track Log ✈ SWA554 ✈ 10-Apr-2013 ✈ KPHX - KMKE

Flight Track Log - Related Links

Times and Time Zones

All times are in EDT time to prevent confusion due to time zone crossing. See the SWA554 flight status page for this flight to view local times or setup timezone preferences in your user account.

Time Position Orientation Groundspeed Altitude Reporting Facility
EDT Latitude Longitude Course Direction KTS MPH feet Rate Location/Type
10:57 33.4333 -112.0500 268° West 170 196 2,500  Level Phoenix TRACON
10:58 33.4333 -112.1333 270° West 237 273 4,300 2,220 Climbing Phoenix TRACON
10:59 33.4500 -112.2000 287° West 272 313 7,000 3,060 Climbing Phoenix TRACON
11:00 33.5333 -112.1833 North 275 316 10,500 2,460 Climbing Phoenix TRACON
11:02 33.5528 -112.0819 77° East 326 375 12,500 2,580 Climbing Albuquerque Center
11:03 33.5756 -111.9439 79° East 355 409 16,400 3,000 Climbing Albuquerque Center
11:04 33.5972 -111.8200 78° East 386 444 18,800 2,640 Climbing Albuquerque Center
11:05 33.6183 -111.6925 79° East 394 453 21,900 2,580 Climbing Albuquerque Center
11:06 33.6403 -111.5642 78° East 397 457 24,200 2,040 Climbing Albuquerque Center
11:07 33.6617 -111.4306 79° East 410 472 26,200 2,040 Climbing Albuquerque Center
11:08 33.6897 -111.2639 79° East 427 491 28,500 1,980 Climbing Albuquerque Center
11:09 33.7372 -111.1342 66° East 428 493 30,400 2,220 Climbing Albuquerque Center
11:10 33.7811 -111.0083 67° East 414 476 33,100 1,920 Climbing Albuquerque Center
11:11 33.8250 -110.8864 67° East 404 465 34,400 960 Climbing Albuquerque Center
11:12 33.8678 -110.7592 68° East 407 468 35,200 780 Climbing Albuquerque Center
11:13 33.9236 -110.6022 67° East 421 484 36,100 780 Climbing Albuquerque Center
11:14 33.9717 -110.4667 67° East 434 499 36,900 420 Climbing Albuquerque Center
11:15 34.0200 -110.3256 68° East 444 511 37,000  Climbing Albuquerque Center
11:16 34.0689 -110.1872 67° East 449 517 37,000  Level Albuquerque Center
11:17 34.1194 -110.0411 67° East 441 507 37,000  Level Albuquerque Center
11:18 34.1636 -109.9114 68° East 439 505 37,000  Level Albuquerque Center
11:19 34.2167 -109.7589 67° East 440 506 37,000  Level Albuquerque Center
11:20 34.2611 -109.6256 68° East 444 511 37,000  Level Albuquerque Center
11:21 34.3147 -109.4708 67° East 447 514 37,000  Level Albuquerque Center
11:22 34.3592 -109.3367 68° East 448 516 37,000  Level Albuquerque Center
11:23 34.4239 -109.1911 62° Northeast 445 512 37,000  Level Albuquerque Center
11:24 34.4919 -109.0739 55° Northeast 442 509 37,000  Level Albuquerque Center
11:25 34.5697 -108.9350 56° Northeast 446 513 37,000  Level Albuquerque Center
11:26 34.6378 -108.8131 56° Northeast 451 519 37,000  Level Albuquerque Center
11:27 34.7156 -108.6719 56° Northeast 452 520 37,000  Level Albuquerque Center
11:28 34.7825 -108.5519 56° Northeast 449 517 37,000  Level Albuquerque Center
11:30 34.8497 -108.4308 56° Northeast 451 519 37,000  Level Albuquerque Center
11:31 34.9286 -108.2914 55° Northeast 449 517 37,000  Level Albuquerque Center
11:32 34.9947 -108.1703 56° Northeast 449 517 37,000  Level Albuquerque Center
11:33 35.0719 -108.0278 56° Northeast 451 519 37,000  Level Albuquerque Center
11:34 35.1394 -107.9047 56° Northeast 453 521 37,000  Level Albuquerque Center
11:35 35.2183 -107.7592 56° Northeast 458 527 37,000  Level Albuquerque Center
11:36 35.2861 -107.6356 56° Northeast 458 527 37,000  Level Albuquerque Center
11:37 35.3611 -107.4958 57° Northeast 460 529 37,000  Level Albuquerque Center
11:38 35.4322 -107.3653 56° Northeast 459 528 37,000  Level Albuquerque Center
11:39 35.5097 -107.2186 57° Northeast 459 528 37,000  Level Albuquerque Center
11:40 35.5725 -107.1011 57° Northeast 459 528 37,000  Level Albuquerque Center
11:41 35.6550 -106.9467 57° Northeast 460 529 37,000  Level Albuquerque Center
11:42 35.7203 -106.8233 57° Northeast 455 524 37,000  Level Albuquerque Center
11:43 35.7981 -106.6767 57° Northeast 457 526 37,000  Level Albuquerque Center
11:44 35.8633 -106.5536 57° Northeast 452 520 37,000  Level Albuquerque Center
11:45 35.9344 -106.4194 57° Northeast 455 524 37,000  Level Albuquerque Center
11:46 36.0017 -106.2864 58° Northeast 457 526 37,000  Level Albuquerque Center
11:47 36.0697 -106.1528 58° Northeast 460 529 37,000  Level Albuquerque Center
11:48 36.1386 -106.0192 57° Northeast 462 532 37,000  Level Albuquerque Center
11:49 36.2097 -105.8897 56° Northeast 457 526 37,000  Level Albuquerque Center
11:50 36.2886 -105.7247 59° Northeast 462 532 37,000  Level Albuquerque Center
11:51 36.3575 -105.5917 57° Northeast 461 531 37,000  Level Albuquerque Center
11:52 36.4319 -105.4456 58° Northeast 460 529 37,000  Level Albuquerque Center
11:53 36.4972 -105.3178 58° Northeast 459 528 37,000  Level Albuquerque Center
11:54 36.5694 -105.1731 58° Northeast 461 531 37,000  Level Albuquerque Center
11:55 36.6378 -105.0347 58° Northeast 463 533 37,000  Level Albuquerque Center
11:56 36.7033 -104.9053 58° Northeast 463 533 37,000  Level Albuquerque Center
11:57 36.7789 -104.7528 58° Northeast 464 534 37,000  Level Albuquerque Center
11:58 36.8453 -104.6228 57° Northeast 465 535 37,000  Level Albuquerque Center
11:59 36.9197 -104.4711 58° Northeast 460 529 37,000  Level Albuquerque Center
12:00 36.9408 -104.4283 58° Northeast 461 531 37,000  Level Denver Center
12:00 36.9828 -104.3403 59° Northeast 459 528 37,000  Level Albuquerque Center
12:01 37.0586 -104.1903 58° Northeast 458 527 37,000  Level Albuquerque Center
12:03 37.1206 -104.0606 59° Northeast 457 526 37,000  Level Albuquerque Center
12:03 37.1425 -104.0164 58° Northeast 461 531 37,000  Level Denver Center
12:04 37.2172 -103.8636 58° Northeast 464 534 37,000  Level Denver Center
12:05 37.2811 -103.7306 59° Northeast 467 537 37,000  Level Denver Center
12:06 37.3344 -103.6211 58° Northeast 469 540 37,000  Level Albuquerque Center
12:07 37.3975 -103.4869 59° Northeast 469 540 37,000  Level Albuquerque Center
12:07 37.4189 -103.4411 60° Northeast 467 537 37,000  Level Denver Center
12:08 37.4942 -103.2850 59° Northeast 468 539 37,000  Level Denver Center
12:09 37.5581 -103.1503 59° Northeast 469 540 37,000  Level Denver Center
12:10 37.6325 -102.9925 59° Northeast 469 540 37,000  Level Denver Center
12:11 37.6969 -102.8561 59° Northeast 473 544 37,000  Level Denver Center
12:12 37.7711 -102.6986 59° Northeast 467 537 37,000 180 Level Denver Center
12:13 37.8339 -102.5619 60° Northeast 468 539 37,400 600 Climbing Denver Center
12:14 37.8989 -102.4225 59° Northeast 473 544 38,300 720 Climbing Denver Center
12:15 37.9722 -102.2611 60° Northeast 472 543 39,000 300 Climbing Denver Center
12:16 38.0378 -102.1197 59° Northeast 482 555 39,000  Level Denver Center
12:17 38.1119 -101.9575 60° Northeast 477 549 39,000  Level Denver Center
12:18 38.1758 -101.8172 60° Northeast 478 550 39,000  Level Denver Center
12:19 38.2506 -101.6528 60° Northeast 478 550 39,000  Level Denver Center
12:20 38.3144 -101.5108 60° Northeast 480 552 39,000  Level Denver Center
12:21 38.3889 -101.3447 60° Northeast 483 556 39,000  Level Denver Center
12:22 38.4519 -101.2019 61° Northeast 481 554 39,000  Level Denver Center
12:24 38.5153 -101.0619 60° Northeast 475 547 39,000  Level Denver Center
12:25 38.5878 -100.8986 60° Northeast 472 543 39,000  Level Denver Center
12:26 38.6500 -100.7581 60° Northeast 472 543 39,000  Level Denver Center
12:27 38.7231 -100.5931 60° Northeast 476 548 39,000  Level Denver Center
12:28 38.7839 -100.4522 61° Northeast 472 543 39,000  Level Denver Center
12:29 38.8556 -100.2861 61° Northeast 475 547 39,000  Level Denver Center
12:30 38.9186 -100.1439 60° Northeast 476 548 39,000  Level Denver Center
12:31 38.9900 -99.9733 62° Northeast 483 556 39,000  Level Denver Center
12:32 39.0536 -99.8283 61° Northeast 485 558 39,000  Level Denver Center
12:33 39.1164 -99.6794 61° Northeast 492 566 39,000  Level Denver Center
12:34 39.1903 -99.5072 61° Northeast 491 565 39,000  Level Denver Center
12:35 39.2575 -99.3481 61° Northeast 493 567 39,000  Level Denver Center
12:36 39.3192 -99.1978 62° Northeast 494 568 39,000  Level Denver Center
12:37 39.4019 -98.9989 62° Northeast 495 570 39,000  Level Denver Center
12:38 39.4817 -98.8064 62° Northeast 491 565 39,000  Level Denver Center
12:39 39.5469 -98.6494 62° Northeast 494 568 39,000  Level Denver Center
12:40 39.6114 -98.4906 62° Northeast 498 573 39,000  Level Denver Center
12:41 39.6758 -98.3339 62° Northeast 496 571 39,000  Level Minneapolis Center
12:42 39.7400 -98.1739 62° Northeast 498 573 39,000  Level Minneapolis Center
12:43 39.8039 -98.0139 62° Northeast 499 574 39,000  Level Minneapolis Center
12:44 39.8678 -97.8542 62° Northeast 500 575 39,000  Level Minneapolis Center
12:45 39.9314 -97.6967 62° Northeast 495 570 39,000  Level Minneapolis Center
12:47 40.0072 -97.5075 62° Northeast 492 566 39,000  Level Minneapolis Center
12:48 40.0689 -97.3475 63° Northeast 492 566 39,000  Level Minneapolis Center
12:49 40.1308 -97.1917 62° Northeast 496 571 39,000  Level Minneapolis Center
12:50 40.1944 -97.0311 63° Northeast 496 571 39,000  Level Minneapolis Center
12:51 40.2569 -96.8700 63° Northeast 498 573 39,000  Level Minneapolis Center
12:52 40.3189 -96.7086 63° Northeast 498 573 39,000  Level Minneapolis Center
12:53 40.3922 -96.5164 63° Northeast 495 570 39,000  Level Minneapolis Center
12:54 40.4525 -96.3567 64° Northeast 492 566 39,000  Level Minneapolis Center
12:55 40.5131 -96.1978 63° Northeast 490 564 39,000  Level Minneapolis Center
12:56 40.5853 -96.0078 63° Northeast 487 560 39,000  Level Minneapolis Center
12:57 40.6442 -95.8508 64° Northeast 483 556 39,000  Level Minneapolis Center
12:58 40.7022 -95.6939 64° Northeast 482 555 39,000  Level Minneapolis Center
12:59 40.7711 -95.5092 64° Northeast 475 547 39,000  Level Minneapolis Center
13:00 40.8283 -95.3539 64° Northeast 474 545 39,000  Level Minneapolis Center
13:01 40.8853 -95.1975 64° Northeast 474 545 39,000  Level Minneapolis Center
13:02 40.9439 -95.0394 64° Northeast 476 548 39,000  Level Minneapolis Center
13:03 41.0017 -94.8800 64° Northeast 479 551 39,000  Level Minneapolis Center
13:04 41.0592 -94.7208 64° Northeast 481 554 39,000  Level Minneapolis Center
13:05 41.1261 -94.5308 65° Northeast 482 555 39,000  Level Minneapolis Center
13:06 41.1839 -94.3697 64° Northeast 480 552 39,000  Level Minneapolis Center
13:07 41.2386 -94.2131 65° Northeast 479 551 39,000  Level Minneapolis Center
13:08 41.2956 -94.0544 64° Northeast 479 551 39,000  Level Minneapolis Center
13:09 41.3511 -93.8944 65° Northeast 479 551 39,000  Level Minneapolis Center
13:10 41.4078 -93.7336 65° Northeast 481 554 39,000  Level Minneapolis Center
13:11 41.4747 -93.5406 65° Northeast 482 555 39,000  Level Minneapolis Center
13:12 41.5317 -93.3756 65° Northeast 487 560 39,000  Level Minneapolis Center
13:13 41.5881 -93.2111 65° Northeast 489 563 39,000  Level Minneapolis Center
13:15 41.6436 -93.0450 66° East 491 565 39,000  Level Minneapolis Center
13:16 41.7006 -92.8803 65° Northeast 491 565 39,000  Level Minneapolis Center
13:17 41.7581 -92.7089 66° East 496 571 39,000  Level Minneapolis Center
13:18 41.8253 -92.5069 66° East 498 573 39,000  Level Minneapolis Center
13:19 41.8803 -92.3356 67° East 500 575 39,000  Level Chicago Center
13:20 41.9367 -92.1675 66° East 500 575 39,000  Level Chicago Center
13:21 41.9922 -91.9983 66° East 500 575 39,000 -360 Level Chicago Center
13:22 42.0472 -91.8289 66° East 500 575 38,300 -840 Descending Chicago Center
13:23 42.1017 -91.6619 66° East 496 571 37,400 -1,080 Descending Chicago Center
13:24 42.1667 -91.4547 67° East 506 582 36,200 -1,020 Descending Chicago Center
13:25 42.2225 -91.2825 66° East 510 587 35,300 -960 Descending Chicago Center
13:26 42.2769 -91.1078 67° East 511 588 34,300 -1,020 Descending Chicago Center
13:27 42.3308 -90.9319 67° East 513 590 33,300 -1,020 Descending Chicago Center
13:28 42.3853 -90.7589 67° East 507 583 32,300 -1,080 Descending Chicago Center
13:29 42.4178 -90.5475 78° East 489 563 31,100 -660 Descending Chicago Center
13:30 42.4353 -90.3697 82° East 482 555 31,000 -720 Descending Chicago Center
13:31 42.4533 -90.1944 82° East 476 548 29,700 -1,500 Descending Chicago Center
13:32 42.4706 -90.0217 82° East 470 541 28,000 -1,320 Descending Chicago Center
13:33 42.4867 -89.8567 82° East 447 514 27,000 -1,500 Descending Chicago Center
13:34 42.5047 -89.6661 83° East 438 504 25,000 -1,920 Descending Chicago Center
13:35 42.5208 -89.5064 82° East 428 493 23,100 -1,860 Descending Chicago Center
13:36 42.5347 -89.3511 83° East 419 482 21,300 -1,800 Descending Chicago Center
13:37 42.5489 -89.1964 83° East 414 476 19,500 -1,740 Descending Chicago Center
13:38 42.5672 -89.0464 81° East 404 465 17,800 -1,740 Descending Chicago Center
13:39 42.5950 -88.9042 75° East 394 453 16,000 -2,040 Descending Chicago Center
13:40 42.6267 -88.7358 76° East 393 452 13,700 -2,040 Descending Chicago Center
13:41 42.6525 -88.5942 76° East 388 447 11,900 -1,680 Descending Chicago Center
13:42 42.6761 -88.4614 76° East 368 423 10,300 -1,200 Descending Chicago Center
13:43 42.6981 -88.3392 76° East 341 392 9,500 -1,200 Descending Chicago Center
13:44 42.6983 -88.2231 90° East 312 359 7,900 -1,380 Descending Chicago Center
13:45 42.6931 -88.1078 94° East 307 353 6,700 -1,260 Descending Chicago Center
13:46 42.6997 -87.9800 86° East 291 335 5,400 -1,080 Descending Chicago Center
13:47 42.7439 -87.9289 40° Northeast 240 276 4,600 -1,140 Descending Chicago Center
13:48 42.8014 -87.9175 North 218 251 3,100 -1,080 Descending Chicago Center
13:49 42.8458 -87.9097 North 188 216 2,400 -720 Descending Chicago Center
13:50 42.8808 -87.9044 North 150 173 1,700 -780 Descending Chicago Center
13:51 42.9000 -87.9000 10° North 119 137 1,300 -840 Descending KMKE
13:54 42.9333 -87.8833 10° North  Level FlightAware Approximate